sensor_id;sensor_type;location;lat;lon;timestamp;pressure;altitude;pressure_sealevel;temperature;humidity
75418;BME280;63997;52.112;5.420;2023-12-14T00:01:39;101088.38;;;5.95;100.00
75418;BME280;63997;52.112;5.420;2023-12-14T00:04:08;101091.31;;;5.93;100.00
75418;BME280;63997;52.112;5.420;2023-12-14T00:06:34;101099.75;;;5.90;100.00
75418;BME280;63997;52.112;5.420;2023-12-14T00:09:01;101106.91;;;5.90;100.00
75418;BME280;63997;52.112;5.420;2023-12-14T00:11:39;101109.78;;;5.88;100.00
75418;BME280;63997;52.112;5.420;2023-12-14T00:14:06;101119.84;;;5.86;100.00
75418;BME280;63997;52.112;5.420;2023-12-14T00:16:33;101121.44;;;5.87;100.00
75418;BME280;63997;52.112;5.420;2023-12-14T00:18:59;101132.28;;;5.86;100.00
75418;BME280;63997;52.112;5.420;2023-12-14T00:21:45;101128.31;;;5.83;100.00
75418;BME280;63997;52.112;5.420;2023-12-14T00:24:11;101133.59;;;5.83;100.00
75418;BME280;63997;52.112;5.420;2023-12-14T00:26:38;101133.34;;;5.84;100.00
75418;BME280;63997;52.112;5.420;2023-12-14T00:29:04;101142.88;;;5.80;100.00
75418;BME280;63997;52.112;5.420;2023-12-14T00:31:53;101146.59;;;5.79;100.00
75418;BME280;63997;52.112;5.420;2023-12-14T00:34:20;101150.00;;;5.80;100.00
75418;BME280;63997;52.112;5.420;2023-12-14T00:36:46;101158.44;;;5.82;100.00
75418;BME280;63997;52.112;5.420;2023-12-14T00:39:13;101157.63;;;5.81;100.00
75418;BME280;63997;52.112;5.420;2023-12-14T00:41:46;101158.44;;;5.82;100.00
75418;BME280;63997;52.112;5.420;2023-12-14T00:44:12;101163.69;;;5.82;100.00
75418;BME280;63997;52.112;5.420;2023-12-14T00:46:39;101162.63;;;5.83;100.00
75418;BME280;63997;52.112;5.420;2023-12-14T00:49:05;101161.59;;;5.84;100.00
75418;BME280;63997;52.112;5.420;2023-12-14T00:51:32;101161.06;;;5.82;100.00
75418;BME280;63997;52.112;5.420;2023-12-14T00:53:59;101164.00;;;5.80;100.00
75418;BME280;63997;52.112;5.420;2023-12-14T00:56:25;101168.47;;;5.80;100.00
75418;BME280;63997;52.112;5.420;2023-12-14T00:58:52;101174.03;;;5.78;100.00
75418;BME280;63997;52.112;5.420;2023-12-14T01:01:45;101177.72;;;5.77;100.00
75418;BME280;63997;52.112;5.420;2023-12-14T01:04:13;101188.59;;;5.71;100.00
75418;BME280;63997;52.112;5.420;2023-12-14T01:06:39;101194.66;;;5.71;100.00
75418;BME280;63997;52.112;5.420;2023-12-14T01:09:06;101196.53;;;5.71;100.00
75418;BME280;63997;52.112;5.420;2023-12-14T01:11:34;101204.97;;;5.73;100.00
75418;BME280;63997;52.112;5.420;2023-12-14T01:14:01;101213.44;;;5.70;100.00
75418;BME280;63997;52.112;5.420;2023-12-14T01:16:28;101217.63;;;5.71;100.00
75418;BME280;63997;52.112;5.420;2023-12-14T01:18:54;101221.84;;;5.72;100.00
75418;BME280;63997;52.112;5.420;2023-12-14T01:21:21;101223.97;;;5.70;100.00
75418;BME280;63997;52.112;5.420;2023-12-14T01:23:47;101227.13;;;5.72;100.00
75418;BME280;63997;52.112;5.420;2023-12-14T01:26:15;101228.72;;;5.73;100.00
75418;BME280;63997;52.112;5.420;2023-12-14T01:28:42;101234.00;;;5.73;100.00
75418;BME280;63997;52.112;5.420;2023-12-14T01:31:12;101230.84;;;5.71;100.00
75418;BME280;63997;52.112;5.420;2023-12-14T01:33:39;101241.94;;;5.68;100.00
75418;BME280;63997;52.112;5.420;2023-12-14T01:36:05;101241.66;;;5.69;100.00
75418;BME280;63997;52.112;5.420;2023-12-14T01:38:32;101238.78;;;5.66;100.00
75418;BME280;63997;52.112;5.420;2023-12-14T01:40:58;101241.16;;;5.67;100.00
75418;BME280;63997;52.112;5.420;2023-12-14T01:43:25;101241.16;;;5.67;100.00
75418;BME280;63997;52.112;5.420;2023-12-14T01:45:52;101248.25;;;5.67;100.00
75418;BME280;63997;52.112;5.420;2023-12-14T01:48:18;101251.97;;;5.66;100.00
75418;BME280;63997;52.112;5.420;2023-12-14T01:50:45;101256.19;;;5.67;100.00
75418;BME280;63997;52.112;5.420;2023-12-14T01:53:11;101263.84;;;5.68;100.00
75418;BME280;63997;52.112;5.420;2023-12-14T01:55:38;101282.03;;;5.70;100.00
75418;BME280;63997;52.112;5.420;2023-12-14T01:58:05;101272.25;;;5.70;100.00
75418;BME280;63997;52.112;5.420;2023-12-14T02:03:01;101285.75;;;5.69;100.00
75418;BME280;63997;52.112;5.420;2023-12-14T02:05:27;101291.00;;;5.69;100.00
75418;BME280;63997;52.112;5.420;2023-12-14T02:07:54;101293.94;;;5.67;100.00
75418;BME280;63997;52.112;5.420;2023-12-14T02:10:39;101302.91;;;5.66;100.00
75418;BME280;63997;52.112;5.420;2023-12-14T02:13:06;101305.81;;;5.65;100.00
75418;BME280;63997;52.112;5.420;2023-12-14T02:15:33;101312.16;;;5.64;100.00
75418;BME280;63997;52.112;5.420;2023-12-14T02:18:00;101313.22;;;5.63;100.00
75418;BME280;63997;52.112;5.420;2023-12-14T02:20:32;101317.16;;;5.65;100.00
75418;BME280;63997;52.112;5.420;2023-12-14T02:22:59;101327.44;;;5.67;100.00
75418;BME280;63997;52.112;5.420;2023-12-14T02:25:25;101328.50;;;5.66;100.00
75418;BME280;63997;52.112;5.420;2023-12-14T02:27:52;101334.56;;;5.66;100.00
75418;BME280;63997;52.112;5.420;2023-12-14T02:30:51;101345.91;;;5.67;100.00
75418;BME280;63997;52.112;5.420;2023-12-14T02:33:18;101358.06;;;5.68;100.00
75418;BME280;63997;52.112;5.420;2023-12-14T02:35:44;101359.38;;;5.65;100.00
75418;BME280;63997;52.112;5.420;2023-12-14T02:38:11;101363.59;;;5.61;100.00
75418;BME280;63997;52.112;5.420;2023-12-14T02:40:40;101373.91;;;5.63;100.00
75418;BME280;63997;52.112;5.420;2023-12-14T02:43:06;101374.69;;;5.63;100.00
75418;BME280;63997;52.112;5.420;2023-12-14T02:45:32;101376.53;;;5.63;100.00
75418;BME280;63997;52.112;5.420;2023-12-14T02:47:59;101376.53;;;5.63;100.00
75418;BME280;63997;52.112;5.420;2023-12-14T02:50:45;101379.69;;;5.65;100.00
75418;BME280;63997;52.112;5.420;2023-12-14T02:53:12;101381.03;;;5.62;100.00
75418;BME280;63997;52.112;5.420;2023-12-14T02:55:39;101378.66;;;5.61;100.00
75418;BME280;63997;52.112;5.420;2023-12-14T02:58:05;101382.34;;;5.60;100.00
75418;BME280;63997;52.112;5.420;2023-12-14T03:00:32;101390.00;;;5.61;100.00
75418;BME280;63997;52.112;5.420;2023-12-14T03:02:58;101382.34;;;5.60;100.00
75418;BME280;63997;52.112;5.420;2023-12-14T03:05:25;101391.84;;;5.61;100.00
75418;BME280;63997;52.112;5.420;2023-12-14T03:07:52;101393.69;;;5.60;100.00
75418;BME280;63997;52.112;5.420;2023-12-14T03:10:41;101392.91;;;5.60;100.00
75418;BME280;63997;52.112;5.420;2023-12-14T03:13:07;101398.97;;;5.60;100.00
75418;BME280;63997;52.112;5.420;2023-12-14T03:15:34;101399.75;;;5.61;100.00
75418;BME280;63997;52.112;5.420;2023-12-14T03:18:00;101404.78;;;5.62;100.00
75418;BME280;63997;52.112;5.420;2023-12-14T03:20:29;101406.09;;;5.60;100.00
75418;BME280;63997;52.112;5.420;2023-12-14T03:22:56;101409.53;;;5.60;100.00
75418;BME280;63997;52.112;5.420;2023-12-14T03:25:23;101405.59;;;5.57;100.00
75418;BME280;63997;52.112;5.420;2023-12-14T03:27:49;101409.81;;;5.58;100.00
75418;BME280;63997;52.112;5.420;2023-12-14T03:30:21;101407.94;;;5.59;100.00
75418;BME280;63997;52.112;5.420;2023-12-14T03:32:47;101413.78;;;5.56;100.00
75418;BME280;63997;52.112;5.420;2023-12-14T03:35:14;101416.16;;;5.57;100.00
75418;BME280;63997;52.112;5.420;2023-12-14T03:37:41;101404.81;;;5.57;100.00
75418;BME280;63997;52.112;5.420;2023-12-14T03:40:16;101404.03;;;5.56;100.00
75418;BME280;63997;52.112;5.420;2023-12-14T03:42:42;101407.69;;;5.55;100.00
75418;BME280;63997;52.112;5.420;2023-12-14T03:45:09;101400.84;;;5.54;100.00
75418;BME280;63997;52.112;5.420;2023-12-14T03:47:36;101411.41;;;5.54;100.00
75418;BME280;63997;52.112;5.420;2023-12-14T03:50:03;101407.69;;;5.55;100.00
75418;BME280;63997;52.112;5.420;2023-12-14T03:52:30;101411.41;;;5.54;100.00
75418;BME280;63997;52.112;5.420;2023-12-14T03:54:58;101412.19;;;5.55;100.00
75418;BME280;63997;52.112;5.420;2023-12-14T03:57:24;101413.78;;;5.56;100.00
75418;BME280;63997;52.112;5.420;2023-12-14T03:59:51;101419.84;;;5.56;100.00
75418;BME280;63997;52.112;5.420;2023-12-14T04:02:25;101413.50;;;5.57;100.00
75418;BME280;63997;52.112;5.420;2023-12-14T04:04:52;101425.13;;;5.56;100.00
75418;BME280;63997;52.112;5.420;2023-12-14T04:07:18;101419.84;;;5.56;100.00
75418;BME280;63997;52.112;5.420;2023-12-14T04:09:45;101425.13;;;5.56;100.00
75418;BME280;63997;52.112;5.420;2023-12-14T04:12:22;101439.34;;;5.55;100.00
75418;BME280;63997;52.112;5.420;2023-12-14T04:14:49;101440.94;;;5.56;100.00
75418;BME280;63997;52.112;5.420;2023-12-14T04:17:16;101450.19;;;5.54;100.00
75418;BME280;63997;52.112;5.420;2023-12-14T04:19:42;101448.88;;;5.51;100.00
75418;BME280;63997;52.112;5.420;2023-12-14T04:22:29;101464.97;;;5.50;100.00
75418;BME280;63997;52.112;5.420;2023-12-14T04:24:56;101466.81;;;5.49;100.00
75418;BME280;63997;52.112;5.420;2023-12-14T04:27:22;101464.72;;;5.46;100.00
75418;BME280;63997;52.112;5.420;2023-12-14T04:29:53;101466.56;;;5.46;100.00
75418;BME280;63997;52.112;5.420;2023-12-14T04:32:19;101480.56;;;5.46;100.00
75418;BME280;63997;52.112;5.420;2023-12-14T04:34:46;101485.56;;;5.48;100.00
75418;BME280;63997;52.112;5.420;2023-12-14T04:37:12;101493.19;;;5.44;100.00
75418;BME280;63997;52.112;5.420;2023-12-14T04:39:39;101488.19;;;5.43;100.00
75418;BME280;63997;52.112;5.420;2023-12-14T04:42:07;101497.97;;;5.42;100.00
75418;BME280;63997;52.112;5.420;2023-12-14T04:44:34;101501.66;;;5.41;100.00
75418;BME280;63997;52.112;5.420;2023-12-14T04:47:00;101509.03;;;5.44;100.00
75418;BME280;63997;52.112;5.420;2023-12-14T04:49:27;101521.69;;;5.47;100.00
75418;BME280;63997;52.112;5.420;2023-12-14T04:51:53;101525.91;;;5.43;100.00
75418;BME280;63997;52.112;5.420;2023-12-14T04:54:20;101523.28;;;5.43;100.00
75418;BME280;63997;52.112;5.420;2023-12-14T04:56:46;101533.84;;;5.43;100.00
75418;BME280;63997;52.112;5.420;2023-12-14T04:59:13;101538.31;;;5.43;100.00
75418;BME280;63997;52.112;5.420;2023-12-14T05:01:40;101540.16;;;5.42;100.00
75418;BME280;63997;52.112;5.420;2023-12-14T05:04:06;101548.88;;;5.43;100.00
75418;BME280;63997;52.112;5.420;2023-12-14T05:06:33;101556.00;;;5.42;100.00
75418;BME280;63997;52.112;5.420;2023-12-14T05:09:00;101559.97;;;5.40;100.00
75418;BME280;63997;52.112;5.420;2023-12-14T05:11:31;101570.75;;;5.38;100.00
75418;BME280;63997;52.112;5.420;2023-12-14T05:13:58;101569.97;;;5.38;100.00
75418;BME280;63997;52.112;5.420;2023-12-14T05:16:24;101569.19;;;5.37;100.00
75418;BME280;63997;52.112;5.420;2023-12-14T05:18:54;101580.53;;;5.38;100.00
75418;BME280;63997;52.112;5.420;2023-12-14T05:21:22;101584.22;;;5.37;100.00
75418;BME280;63997;52.112;5.420;2023-12-14T05:23:49;101598.19;;;5.37;100.00
75418;BME280;63997;52.112;5.420;2023-12-14T05:26:16;101598.19;;;5.37;100.00
75418;BME280;63997;52.112;5.420;2023-12-14T05:28:42;101611.13;;;5.39;100.00
75418;BME280;63997;52.112;5.420;2023-12-14T05:31:10;101608.75;;;5.37;100.00
75418;BME280;63997;52.112;5.420;2023-12-14T05:33:39;101611.38;;;5.37;100.00
75418;BME280;63997;52.112;5.420;2023-12-14T05:36:06;101618.78;;;5.35;100.00
75418;BME280;63997;52.112;5.420;2023-12-14T05:38:40;101620.34;;;5.36;100.00
75418;BME280;63997;52.112;5.420;2023-12-14T05:41:08;101627.22;;;5.37;100.00
75418;BME280;63997;52.112;5.420;2023-12-14T05:43:34;101627.22;;;5.37;100.00
75418;BME280;63997;52.112;5.420;2023-12-14T05:46:03;101631.97;;;5.35;100.00
75418;BME280;63997;52.112;5.420;2023-12-14T05:48:30;101643.03;;;5.32;100.00
75418;BME280;63997;52.112;5.420;2023-12-14T05:50:57;101623.25;;;5.29;100.00
75418;BME280;63997;52.112;5.420;2023-12-14T05:53:23;101642.00;;;5.28;100.00
75418;BME280;63997;52.112;5.420;2023-12-14T05:55:50;101643.03;;;5.27;100.00
75418;BME280;63997;52.112;5.420;2023-12-14T05:58:16;101648.31;;;5.27;100.00
75418;BME280;63997;52.112;5.420;2023-12-14T06:00:43;101645.16;;;5.25;100.00
75418;BME280;63997;52.112;5.420;2023-12-14T06:03:09;101654.38;;;5.22;100.00
75418;BME280;63997;52.112;5.420;2023-12-14T06:05:36;101652.53;;;5.18;100.00
75418;BME280;63997;52.112;5.420;2023-12-14T06:08:03;101667.00;;;5.15;100.00
75418;BME280;63997;52.112;5.420;2023-12-14T06:10:30;101667.81;;;5.11;100.00
75418;BME280;63997;52.112;5.420;2023-12-14T06:12:58;101674.66;;;5.07;100.00
75418;BME280;63997;52.112;5.420;2023-12-14T06:15:25;101672.28;;;5.05;100.00
75418;BME280;63997;52.112;5.420;2023-12-14T06:17:51;101678.34;;;5.06;100.00
75418;BME280;63997;52.112;5.420;2023-12-14T06:20:19;101674.66;;;5.07;100.00
75418;BME280;63997;52.112;5.420;2023-12-14T06:22:45;101683.63;;;5.06;100.00
75418;BME280;63997;52.112;5.420;2023-12-14T06:25:12;101688.91;;;5.06;100.00
75418;BME280;63997;52.112;5.420;2023-12-14T06:27:39;101689.94;;;4.99;100.00
75418;BME280;63997;52.112;5.420;2023-12-14T06:30:07;101697.31;;;4.97;100.00
75418;BME280;63997;52.112;5.420;2023-12-14T06:32:36;101695.44;;;4.93;100.00
75418;BME280;63997;52.112;5.420;2023-12-14T06:35:03;101709.41;;;4.88;100.00
75418;BME280;63997;52.112;5.420;2023-12-14T06:37:29;101714.69;;;4.88;100.00
75418;BME280;63997;52.112;5.420;2023-12-14T06:39:56;101726.03;;;4.89;100.00
75418;BME280;63997;52.112;5.420;2023-12-14T06:42:22;101731.78;;;4.86;100.00
75418;BME280;63997;52.112;5.420;2023-12-14T06:44:49;101733.63;;;4.85;100.00
75418;BME280;63997;52.112;5.420;2023-12-14T06:47:15;101739.19;;;4.84;100.00
75418;BME280;63997;52.112;5.420;2023-12-14T06:49:42;101750.50;;;4.84;100.00
75418;BME280;63997;52.112;5.420;2023-12-14T06:52:09;101752.59;;;4.82;100.00
75418;BME280;63997;52.112;5.420;2023-12-14T06:54:35;101751.00;;;4.81;100.00
75418;BME280;63997;52.112;5.420;2023-12-14T06:57:02;101751.81;;;4.82;100.00
75418;BME280;63997;52.112;5.420;2023-12-14T06:59:29;101759.47;;;4.83;100.00
75418;BME280;63997;52.112;5.420;2023-12-14T07:02:07;101759.47;;;4.83;100.00
75418;BME280;63997;52.112;5.420;2023-12-14T07:04:33;101763.13;;;4.82;100.00
75418;BME280;63997;52.112;5.420;2023-12-14T07:07:00;101771.31;;;4.81;100.00
75418;BME280;63997;52.112;5.420;2023-12-14T07:09:26;101781.31;;;4.78;100.00
75418;BME280;63997;52.112;5.420;2023-12-14T07:11:58;101785.25;;;4.76;99.90
75418;BME280;63997;52.112;5.420;2023-12-14T07:14:27;101795.00;;;4.75;100.00
75418;BME280;63997;52.112;5.420;2023-12-14T07:16:54;101794.19;;;4.75;100.00
75418;BME280;63997;52.112;5.420;2023-12-14T07:19:20;101801.06;;;4.76;99.92
75418;BME280;63997;52.112;5.420;2023-12-14T07:21:53;101801.06;;;4.76;99.71
75418;BME280;63997;52.112;5.420;2023-12-14T07:24:19;101810.00;;;4.75;99.74
75418;BME280;63997;52.112;5.420;2023-12-14T07:26:46;101806.28;;;4.71;99.30
75418;BME280;63997;52.112;5.420;2023-12-14T07:29:12;101813.16;;;4.72;99.32
75418;BME280;63997;52.112;5.420;2023-12-14T07:31:45;101817.38;;;4.73;99.12
75418;BME280;63997;52.112;5.420;2023-12-14T07:34:12;101816.59;;;4.72;99.16
75418;BME280;63997;52.112;5.420;2023-12-14T07:36:38;101824.47;;;4.67;98.57
75418;BME280;63997;52.112;5.420;2023-12-14T07:39:05;101826.06;;;4.68;98.69
75418;BME280;63997;52.112;5.420;2023-12-14T07:41:36;101831.31;;;4.68;98.67
75418;BME280;63997;52.112;5.420;2023-12-14T07:44:02;101831.59;;;4.67;98.41
75418;BME280;63997;52.112;5.420;2023-12-14T07:46:32;101835.50;;;4.64;97.99
75418;BME280;63997;52.112;5.420;2023-12-14T07:48:59;101842.13;;;4.67;97.99
75418;BME280;63997;52.112;5.420;2023-12-14T07:51:35;101842.34;;;4.65;98.14
75418;BME280;63997;52.112;5.420;2023-12-14T07:54:01;101854.72;;;4.65;98.27
75418;BME280;63997;52.112;5.420;2023-12-14T07:56:29;101854.25;;;4.68;98.08
75418;BME280;63997;52.112;5.420;2023-12-14T07:58:56;101855.28;;;4.67;97.65
75418;BME280;63997;52.112;5.420;2023-12-14T08:01:23;101857.66;;;4.68;97.66
75418;BME280;63997;52.112;5.420;2023-12-14T08:03:49;101857.16;;;4.71;97.90
75418;BME280;63997;52.112;5.420;2023-12-14T08:06:16;101864.25;;;4.71;97.86
75418;BME280;63997;52.112;5.420;2023-12-14T08:08:43;101870.88;;;4.73;97.78
75418;BME280;63997;52.112;5.420;2023-12-14T08:11:17;101867.97;;;4.75;97.95
75418;BME280;63997;52.112;5.420;2023-12-14T08:13:43;101873.00;;;4.76;98.25
75418;BME280;63997;52.112;5.420;2023-12-14T08:16:10;101869.34;;;4.77;98.52
75418;BME280;63997;52.112;5.420;2023-12-14T08:18:37;101870.66;;;4.80;98.83
75418;BME280;63997;52.112;5.420;2023-12-14T08:21:12;101874.88;;;4.81;98.59
75418;BME280;63997;52.112;5.420;2023-12-14T08:23:39;101884.34;;;4.82;98.65
75418;BME280;63997;52.112;5.420;2023-12-14T08:26:06;101892.03;;;4.84;99.03
75418;BME280;63997;52.112;5.420;2023-12-14T08:28:34;101904.16;;;4.85;98.94
75418;BME280;63997;52.112;5.420;2023-12-14T08:31:01;101911.00;;;4.86;98.56
75418;BME280;63997;52.112;5.420;2023-12-14T08:33:30;101895.97;;;4.86;98.22
75418;BME280;63997;52.112;5.420;2023-12-14T08:35:56;101900.19;;;4.87;97.90
75418;BME280;63997;52.112;5.420;2023-12-14T08:38:23;101900.75;;;4.89;98.05
75418;BME280;63997;52.112;5.420;2023-12-14T08:40:52;101906.53;;;4.86;97.23
75418;BME280;63997;52.112;5.420;2023-12-14T08:43:20;101909.72;;;4.88;97.30
75418;BME280;63997;52.112;5.420;2023-12-14T08:45:48;101915.53;;;4.90;97.40
75418;BME280;63997;52.112;5.420;2023-12-14T08:48:15;101917.91;;;4.92;97.57
75418;BME280;63997;52.112;5.420;2023-12-14T08:50:47;101918.16;;;4.90;97.40
75418;BME280;63997;52.112;5.420;2023-12-14T08:53:14;101933.97;;;4.90;97.60
75418;BME280;63997;52.112;5.420;2023-12-14T08:55:41;101932.66;;;4.93;97.67
75418;BME280;63997;52.112;5.420;2023-12-14T08:58:07;101944.00;;;4.93;97.96
75418;BME280;63997;52.112;5.420;2023-12-14T09:00:35;101943.19;;;4.93;97.60
75418;BME280;63997;52.112;5.420;2023-12-14T09:03:01;101948.72;;;4.91;97.23
75418;BME280;63997;52.112;5.420;2023-12-14T09:05:28;101953.50;;;4.94;97.33
75418;BME280;63997;52.112;5.420;2023-12-14T09:07:55;101952.47;;;4.95;97.64
75418;BME280;63997;52.112;5.420;2023-12-14T09:10:24;101951.94;;;4.98;97.64
75418;BME280;63997;52.112;5.420;2023-12-14T09:12:50;101962.25;;;5.00;97.26
75418;BME280;63997;52.112;5.420;2023-12-14T09:15:17;101963.84;;;5.01;96.89
75418;BME280;63997;52.112;5.420;2023-12-14T09:17:43;101967.25;;;5.01;96.66
75418;BME280;63997;52.112;5.420;2023-12-14T09:20:11;101966.22;;;5.02;96.35
75418;BME280;63997;52.112;5.420;2023-12-14T09:22:38;101977.28;;;5.04;96.46
75418;BME280;63997;52.112;5.420;2023-12-14T09:25:05;101982.06;;;5.08;96.81
75418;BME280;63997;52.112;5.420;2023-12-14T09:27:32;101986.28;;;5.09;96.96
75418;BME280;63997;52.112;5.420;2023-12-14T09:29:59;101992.13;;;5.11;97.20
75418;BME280;63997;52.112;5.420;2023-12-14T09:32:25;101992.13;;;5.11;97.11
75418;BME280;63997;52.112;5.420;2023-12-14T09:34:52;101992.66;;;5.13;96.87
75418;BME280;63997;52.112;5.420;2023-12-14T09:37:22;102004.25;;;5.12;96.90
75418;BME280;63997;52.112;5.420;2023-12-14T09:39:49;101999.50;;;5.14;96.82
75418;BME280;63997;52.112;5.420;2023-12-14T09:42:21;102002.66;;;5.16;96.71
75418;BME280;63997;52.112;5.420;2023-12-14T09:44:52;102009.56;;;5.17;97.00
75418;BME280;63997;52.112;5.420;2023-12-14T09:47:19;102016.94;;;5.20;97.31
75418;BME280;63997;52.112;5.420;2023-12-14T09:49:47;102015.91;;;5.21;96.88
75418;BME280;63997;52.112;5.420;2023-12-14T09:52:15;102023.81;;;5.21;96.52
75418;BME280;63997;52.112;5.420;2023-12-14T09:54:42;102032.00;;;5.24;96.19
75418;BME280;63997;52.112;5.420;2023-12-14T09:57:09;102028.06;;;5.27;96.11
75418;BME280;63997;52.112;5.420;2023-12-14T09:59:37;102050.78;;;5.28;96.02
75418;BME280;63997;52.112;5.420;2023-12-14T10:02:10;102048.94;;;5.28;95.64
75418;BME280;63997;52.112;5.420;2023-12-14T10:04:37;102047.88;;;5.29;95.76
75418;BME280;63997;52.112;5.420;2023-12-14T10:07:05;102066.09;;;5.31;95.81
75418;BME280;63997;52.112;5.420;2023-12-14T10:09:36;102062.94;;;5.34;96.08
75418;BME280;63997;52.112;5.420;2023-12-14T10:12:07;102077.19;;;5.38;95.74
75418;BME280;63997;52.112;5.420;2023-12-14T10:14:35;102069.59;;;5.42;95.95
75418;BME280;63997;52.112;5.420;2023-12-14T10:17:22;102063.56;;;5.46;96.10
75418;BME280;63997;52.112;5.420;2023-12-14T10:19:55;102063.03;;;5.49;96.10
75418;BME280;63997;52.112;5.420;2023-12-14T10:22:26;102060.44;;;5.54;95.91
75418;BME280;63997;52.112;5.420;2023-12-14T10:24:56;102066.53;;;5.60;95.56
75418;BME280;63997;52.112;5.420;2023-12-14T10:27:22;102067.09;;;5.62;95.14
75418;BME280;63997;52.112;5.420;2023-12-14T10:29:49;102062.06;;;5.66;94.77
75418;BME280;63997;52.112;5.420;2023-12-14T10:32:18;102069.75;;;5.72;94.71
75418;BME280;63997;52.112;5.420;2023-12-14T10:34:45;102071.41;;;5.78;94.60
75418;BME280;63997;52.112;5.420;2023-12-14T10:37:11;102074.88;;;5.84;94.10
75418;BME280;63997;52.112;5.420;2023-12-14T10:39:42;102076.97;;;5.87;93.65
75418;BME280;63997;52.112;5.420;2023-12-14T10:42:13;102078.81;;;5.87;93.49
75418;BME280;63997;52.112;5.420;2023-12-14T10:44:49;102075.44;;;5.91;93.23
75418;BME280;63997;52.112;5.420;2023-12-14T10:47:43;102076.53;;;5.95;92.80
75418;BME280;63997;52.112;5.420;2023-12-14T10:50:13;102072.84;;;5.96;92.52
75418;BME280;63997;52.112;5.420;2023-12-14T10:52:41;102078.81;;;5.87;91.87
75418;BME280;63997;52.112;5.420;2023-12-14T10:55:11;102075.44;;;5.91;92.00
75418;BME280;63997;52.112;5.420;2023-12-14T10:57:39;102067.81;;;6.00;92.14
75418;BME280;63997;52.112;5.420;2023-12-14T11:00:10;102074.72;;;6.06;91.90
75418;BME280;63997;52.112;5.420;2023-12-14T11:02:41;102076.09;;;6.14;92.49
75418;BME280;63997;52.112;5.420;2023-12-14T11:05:12;102080.03;;;6.16;91.77
75418;BME280;63997;52.112;5.420;2023-12-14T11:10:26;102091.72;;;6.25;91.35
75418;BME280;63997;52.112;5.420;2023-12-14T11:15:28;102099.91;;;6.29;90.97
75418;BME280;63997;52.112;5.420;2023-12-14T11:20:54;102105.19;;;6.34;90.88
75418;BME280;63997;52.112;5.420;2023-12-14T11:26:02;102116.59;;;6.45;89.99
75418;BME280;63997;52.112;5.420;2023-12-14T11:28:31;102120.59;;;6.47;88.82
75418;BME280;63997;52.112;5.420;2023-12-14T11:30:58;102117.41;;;6.50;89.44
75418;BME280;63997;52.112;5.420;2023-12-14T11:33:25;102116.91;;;6.53;89.53
75418;BME280;63997;52.112;5.420;2023-12-14T11:35:53;102110.03;;;6.52;89.34
75418;BME280;63997;52.112;5.420;2023-12-14T11:38:20;102124.84;;;6.53;89.71
75418;BME280;63997;52.112;5.420;2023-12-14T11:40:49;102120.34;;;6.54;89.99
75418;BME280;63997;52.112;5.420;2023-12-14T11:43:17;102120.34;;;6.54;89.67
75418;BME280;63997;52.112;5.420;2023-12-14T11:45:47;102115.84;;;6.54;88.42
75418;BME280;63997;52.112;5.420;2023-12-14T11:48:14;102113.22;;;6.59;88.72
75418;BME280;63997;52.112;5.420;2023-12-14T11:50:42;102125.38;;;6.60;88.56
75418;BME280;63997;52.112;5.420;2023-12-14T11:53:10;102113.75;;;6.61;89.09
75418;BME280;63997;52.112;5.420;2023-12-14T11:55:39;102117.47;;;6.66;88.91
75418;BME280;63997;52.112;5.420;2023-12-14T11:58:06;102120.09;;;6.66;88.95
75418;BME280;63997;52.112;5.420;2023-12-14T12:00:34;102119.28;;;6.60;88.29
75418;BME280;63997;52.112;5.420;2023-12-14T12:03:14;102123.53;;;6.66;88.05
75418;BME280;63997;52.112;5.420;2023-12-14T12:05:49;102125.13;;;6.72;88.55
75418;BME280;63997;52.112;5.420;2023-12-14T12:08:20;102130.19;;;6.74;87.99
75418;BME280;63997;52.112;5.420;2023-12-14T12:10:48;102130.97;;;6.74;88.57
75418;BME280;63997;52.112;5.420;2023-12-14T12:13:18;102134.94;;;6.77;89.64
75418;BME280;63997;52.112;5.420;2023-12-14T12:15:46;102134.66;;;6.78;89.52
75418;BME280;63997;52.112;5.420;2023-12-14T12:18:14;102136.00;;;6.76;88.63
75418;BME280;63997;52.112;5.420;2023-12-14T12:20:41;102133.34;;;6.76;88.10
75418;BME280;63997;52.112;5.420;2023-12-14T12:23:07;102136.78;;;6.71;88.02
75418;BME280;63997;52.112;5.420;2023-12-14T12:25:34;102142.06;;;6.71;88.08
75418;BME280;63997;52.112;5.420;2023-12-14T12:28:02;102143.66;;;6.72;88.74
75418;BME280;63997;52.112;5.420;2023-12-14T12:30:32;102146.06;;;6.74;89.09
75418;BME280;63997;52.112;5.420;2023-12-14T12:33:02;102147.88;;;6.73;89.75
75418;BME280;63997;52.112;5.420;2023-12-14T12:35:29;102152.66;;;6.76;90.19
75418;BME280;63997;52.112;5.420;2023-12-14T12:37:57;102145.50;;;6.77;90.36
75418;BME280;63997;52.112;5.420;2023-12-14T12:40:24;102151.59;;;6.77;90.50
75418;BME280;63997;52.112;5.420;2023-12-14T12:42:53;102154.50;;;6.76;90.49
75418;BME280;63997;52.112;5.420;2023-12-14T12:45:20;102159.00;;;6.75;90.77
75418;BME280;63997;52.112;5.420;2023-12-14T12:47:54;102165.59;;;6.73;90.61
75418;BME280;63997;52.112;5.420;2023-12-14T12:50:20;102163.50;;;6.75;91.05
75418;BME280;63997;52.112;5.420;2023-12-14T12:52:47;102157.66;;;6.78;91.00
75418;BME280;63997;52.112;5.420;2023-12-14T12:55:15;102158.47;;;6.78;90.98
75418;BME280;63997;52.112;5.420;2023-12-14T12:57:42;102164.03;;;6.77;90.41
75418;BME280;63997;52.112;5.420;2023-12-14T13:00:09;102160.84;;;6.75;90.07
75418;BME280;63997;52.112;5.420;2023-12-14T13:02:44;102161.38;;;6.77;90.52
75418;BME280;63997;52.112;5.420;2023-12-14T13:05:11;102151.34;;;6.74;90.80
75418;BME280;63997;52.112;5.420;2023-12-14T13:07:44;102164.56;;;6.74;90.52
75418;BME280;63997;52.112;5.420;2023-12-14T13:10:12;102153.44;;;6.72;90.47
75418;BME280;63997;52.112;5.420;2023-12-14T13:12:54;102160.03;;;6.69;90.57
75418;BME280;63997;52.112;5.420;2023-12-14T13:15:22;102167.94;;;6.64;90.53